Hlavní strana
METAR-TAF:

METAR-TAF

Letiště :

Tri-County Airport

Ahoskie, Severní Karolína, Spojené státy americké

zeměpisná šířka: 36-17-51N, zeměpisná délka: 077-10-15W, výška: 21 m

Aktuální stav počasí

Zpráva byla vytvořena před 22 minutami, v 17:35 UTC
Západoseverozápadní vítr 13 kt s nárazy do 23 kt
Teplota 8°C
Vlhkost vzduchu 39%
Tlak 1014 hPa
Viditelnost: 16.1 km
Polojasno ve výšce 5500 ft

METAR: KASJ 271735Z AUTO 29013G23KT 10SM SCT055 08/M05 A2993 RMK AO2 T00781047

Čas: 12:57 (17:57 UTC)


TAF: chybějící

Stav a předpovědi počasí z více než 4 000 letišť (zprávy METAR a TAF).

Červené a žluté tečky na mapě představují dostupné meteorologické stanice.

Když kurzor umístíte na tečku, zobrazí se název stanice.

Pak kliknutím zobrazíte stav a předpověď počasí.

Chcete-li změnit mapu, kliknutím na zelené tlačítko se znaménkem +mapu přiblížíte, kliknutím na zelené tlačítko se znaménkem – mapu oddálíte a kliknutím na zelené šipky přejdete na sousední mapy.


METAR-TAF: